createdAt,value
2023-03-25T00:03:32.130Z,0
2023-03-25T00:08:49.471Z,0
2023-03-25T00:14:17.941Z,0
2023-03-25T00:19:35.458Z,0
2023-03-25T00:24:52.769Z,0
2023-03-25T00:30:09.876Z,0
2023-03-25T00:35:34.333Z,0
2023-03-25T00:40:51.670Z,0
2023-03-25T00:46:11.144Z,0
2023-03-25T00:51:30.781Z,0
2023-03-25T00:56:50.303Z,0
2023-03-25T01:02:07.961Z,0
2023-03-25T01:07:25.263Z,0
2023-03-25T01:12:42.755Z,0
2023-03-25T01:18:02.727Z,0
2023-03-25T01:23:20.353Z,0
2023-03-25T01:28:41.633Z,0
2023-03-25T01:33:58.933Z,0
2023-03-25T01:39:18.162Z,0
2023-03-25T01:44:35.625Z,0
2023-03-25T01:49:53.034Z,0
2023-03-25T01:55:19.360Z,0
2023-03-25T02:00:36.795Z,0
2023-03-25T02:05:54.061Z,0
2023-03-25T02:11:11.366Z,0
2023-03-25T02:16:28.836Z,0
2023-03-25T02:21:46.287Z,0
2023-03-25T02:27:03.693Z,0
2023-03-25T02:32:21.195Z,0
2023-03-25T02:37:38.482Z,0
2023-03-25T02:42:55.791Z,0
2023-03-25T02:48:12.987Z,0
2023-03-25T02:53:30.397Z,0
2023-03-25T02:58:47.844Z,0
2023-03-25T03:04:10.402Z,0
2023-03-25T03:09:27.963Z,0
2023-03-25T03:14:45.229Z,0
2023-03-25T03:20:02.578Z,0
2023-03-25T03:25:19.830Z,0
2023-03-25T03:30:40.563Z,0
2023-03-25T03:35:57.843Z,0
2023-03-25T03:41:15.223Z,0
2023-03-25T03:46:33.004Z,0
2023-03-25T03:51:50.398Z,0
2023-03-25T03:57:07.712Z,0
2023-03-25T04:02:57.393Z,0
2023-03-25T04:08:16.683Z,0
2023-03-25T04:13:33.891Z,0
2023-03-25T04:18:51.215Z,0
2023-03-25T04:24:08.809Z,0
2023-03-25T04:29:26.170Z,0
2023-03-25T04:34:45.762Z,0
2023-03-25T04:40:03.077Z,0
2023-03-25T04:45:20.433Z,0
2023-03-25T04:50:37.769Z,0
2023-03-25T04:55:54.962Z,0
2023-03-25T05:01:12.592Z,0
2023-03-25T05:06:30.292Z,0.5
2023-03-25T05:11:47.562Z,0.5
2023-03-25T05:17:05.049Z,36.7
2023-03-25T05:22:22.337Z,37.9
2023-03-25T05:33:04.478Z,257.5
2023-03-25T05:38:21.680Z,214.6
2023-03-25T05:43:38.527Z,393.3
2023-03-25T05:48:55.464Z,288.3
2023-03-25T05:54:12.399Z,620
2023-03-25T05:59:29.480Z,1418.3
2023-03-25T06:04:46.934Z,2140.4
2023-03-25T06:10:04.400Z,2745.8
2023-03-25T06:15:21.838Z,3137.5
2023-03-25T06:25:58.432Z,1869.2
2023-03-25T06:31:18.818Z,1630.8
2023-03-25T06:36:35.846Z,2442.5
2023-03-25T06:41:58.669Z,2733.8
2023-03-25T06:47:16.142Z,7457.5
2023-03-25T06:52:37.014Z,5905
2023-03-25T06:57:54.320Z,6110.8
2023-03-25T07:03:11.656Z,5217.1
2023-03-25T07:08:37.670Z,5493.3
2023-03-25T07:13:54.736Z,6355.8
2023-03-25T07:19:11.706Z,3946.7
2023-03-25T07:24:28.641Z,3438.8
2023-03-25T07:29:45.597Z,3516.7
2023-03-25T07:35:03.080Z,4569.6
2023-03-25T07:40:22.569Z,3219.2
2023-03-25T07:45:43.462Z,3516.3
2023-03-25T07:51:01.998Z,14839.6
2023-03-25T07:56:20.582Z,19596.7
2023-03-25T08:01:39.269Z,18552.1
2023-03-25T08:06:59.884Z,7380.8
2023-03-25T08:12:16.454Z,19436.7
2023-03-25T08:17:45.524Z,16325.8
2023-03-25T08:23:01.985Z,15287.5
2023-03-25T08:28:18.441Z,9428.3
2023-03-25T08:33:37.890Z,11832.9
2023-03-25T08:38:54.632Z,10676.7
2023-03-25T08:44:11.971Z,10528.3
2023-03-25T08:49:29.370Z,15248.8
2023-03-25T08:54:49.089Z,16825.8
2023-03-25T09:00:11.836Z,13795
2023-03-25T09:05:28.252Z,18832.9
2023-03-25T09:10:45.878Z,22156.2
2023-03-25T09:16:03.612Z,36505
2023-03-25T09:21:20.522Z,19825.8
2023-03-25T09:26:44.055Z,9826.7
2023-03-25T09:32:02.190Z,43910
2023-03-25T09:42:42.987Z,15084.6
2023-03-25T09:47:58.589Z,8493.3
2023-03-25T09:53:14.629Z,7452.5
2023-03-25T09:58:31.632Z,8768.3
2023-03-25T10:03:57.558Z,13001.7
2023-03-25T10:09:17.193Z,18912.1
2023-03-25T10:14:32.443Z,21680
2023-03-25T10:19:50.973Z,11327.9
2023-03-25T10:25:05.317Z,13002.9
2023-03-25T10:30:21.082Z,21430.8
2023-03-25T10:35:37.747Z,12677.5
2023-03-25T10:40:55.155Z,16270.4
2023-03-25T10:46:13.023Z,23580
2023-03-25T10:51:29.817Z,14805.4
2023-03-25T10:56:47.316Z,47068.3
2023-03-25T11:02:04.121Z,17804.6
2023-03-25T11:07:22.695Z,24582.9
2023-03-25T11:18:02.531Z,52876.6
2023-03-25T11:23:21.388Z,28400.8
2023-03-25T11:28:37.561Z,26742.9
2023-03-25T11:33:56.081Z,46795.8
2023-03-25T11:39:14.097Z,38575.8
2023-03-25T11:44:32.189Z,47832.5
2023-03-25T11:49:47.801Z,35685.8
2023-03-25T11:55:05.080Z,22010.8
2023-03-25T12:00:19.798Z,17439.6
2023-03-25T12:05:36.908Z,48298.3
2023-03-25T12:10:56.633Z,42490.8
2023-03-25T12:16:12.458Z,18156.7
2023-03-25T12:21:29.051Z,16277.5
2023-03-25T12:26:45.322Z,13600
2023-03-25T12:32:01.338Z,20458.7
2023-03-25T12:37:21.122Z,52475.9
2023-03-25T12:42:37.774Z,13972.1
2023-03-25T12:47:53.729Z,14063.3
2023-03-25T12:53:09.455Z,10507.9
2023-03-25T12:58:28.598Z,13517.5
2023-03-25T13:03:45.640Z,7525
2023-03-25T13:09:05.302Z,2655.4
2023-03-25T13:14:21.961Z,1720.4
2023-03-25T13:19:38.630Z,2314.2
2023-03-25T13:24:55.569Z,6504.2
2023-03-25T13:30:13.229Z,5234.2
2023-03-25T13:35:30.522Z,4200
2023-03-25T13:40:47.592Z,3686.3
2023-03-25T13:46:05.639Z,20994.2
2023-03-25T13:51:23.077Z,18866.7
2023-03-25T13:56:47.612Z,19410.4
2023-03-25T14:02:07.276Z,27968.3
2023-03-25T14:07:25.177Z,23930.4
2023-03-25T14:12:39.256Z,8504.6
2023-03-25T14:17:54.836Z,13210.8
2023-03-25T14:23:21.876Z,11072.5
2023-03-25T14:28:38.351Z,20189.2
2023-03-25T14:33:55.672Z,6521.3
2023-03-25T14:39:11.957Z,6052.1
2023-03-25T14:44:30.340Z,26100.4
2023-03-25T14:49:59.601Z,14951.2
2023-03-25T14:55:18.236Z,31461.7
2023-03-25T15:00:35.210Z,8235
2023-03-25T15:05:51.131Z,5375.4
2023-03-25T15:11:07.214Z,11421.2
2023-03-25T15:16:37.104Z,12161.7
2023-03-25T15:21:54.926Z,6594.2
2023-03-25T15:27:11.920Z,5848.3
2023-03-25T15:32:28.710Z,3832.5
2023-03-25T15:37:46.771Z,5953.3
2023-03-25T15:43:13.926Z,4317.9
2023-03-25T15:48:31.078Z,2977.1
2023-03-25T15:53:57.292Z,4029.6
2023-03-25T15:59:14.574Z,3005
2023-03-25T16:04:31.363Z,3422.1
2023-03-25T16:15:09.136Z,5364.6
2023-03-25T16:20:29.064Z,2568.3
2023-03-25T16:25:46.988Z,1774.2
2023-03-25T16:31:05.522Z,6533.3
2023-03-25T16:36:22.589Z,2770
2023-03-25T16:41:39.490Z,2886.7
2023-03-25T16:52:16.285Z,1268.7
2023-03-25T16:57:54.710Z,2796.3
2023-03-25T17:03:12.188Z,3105
2023-03-25T17:08:31.577Z,1615
2023-03-25T17:13:48.393Z,1310
2023-03-25T17:24:25.765Z,1044.6
2023-03-25T17:30:00.205Z,822.5
2023-03-25T17:35:17.206Z,632.9
2023-03-25T17:40:34.218Z,477.1
2023-03-25T17:45:51.243Z,385
2023-03-25T17:51:08.120Z,230
2023-03-25T17:56:45.835Z,128.3
2023-03-25T18:02:03.200Z,82.9
2023-03-25T18:07:32.617Z,42.1
2023-03-25T18:12:50.437Z,0.5
2023-03-25T18:18:07.814Z,0
2023-03-25T18:23:27.036Z,0
2023-03-25T18:28:44.508Z,0
2023-03-25T18:34:03.286Z,0
2023-03-25T18:39:25.817Z,0
2023-03-25T18:44:44.527Z,0
2023-03-25T18:50:03.530Z,0
2023-03-25T18:55:28.563Z,0
2023-03-25T19:00:46.846Z,0
2023-03-25T19:06:05.003Z,0
2023-03-25T19:11:22.700Z,0
2023-03-25T19:16:41.840Z,0
2023-03-25T19:22:01.714Z,0
2023-03-25T19:27:19.497Z,0
2023-03-25T19:32:37.382Z,0
2023-03-25T19:37:55.160Z,0
2023-03-25T19:43:12.676Z,0
2023-03-25T19:48:32.751Z,0
2023-03-25T19:53:50.652Z,0
2023-03-25T19:59:08.603Z,0
2023-03-25T20:04:26.359Z,0
2023-03-25T20:09:43.811Z,0
2023-03-25T20:15:05.453Z,0
2023-03-25T20:20:23.076Z,0
2023-03-25T20:25:40.585Z,0
2023-03-25T20:30:57.872Z,0
2023-03-25T20:36:15.567Z,0
2023-03-25T20:41:36.290Z,0
2023-03-25T20:46:53.754Z,0
2023-03-25T20:52:11.302Z,0
2023-03-25T20:57:28.636Z,0
2023-03-25T21:02:46.206Z,0
2023-03-25T21:08:03.960Z,0
2023-03-25T21:13:21.368Z,0
2023-03-25T21:18:39.105Z,0
2023-03-25T21:23:56.912Z,0
2023-03-25T21:29:14.831Z,0
2023-03-25T21:34:32.622Z,0
2023-03-25T21:39:50.354Z,0
2023-03-25T21:45:07.718Z,0
2023-03-25T21:50:26.271Z,0
2023-03-25T21:55:43.960Z,0
2023-03-25T22:01:01.215Z,0
2023-03-25T22:12:23.921Z,0
2023-03-25T22:17:44.554Z,0
2023-03-25T22:23:04.285Z,0
2023-03-25T22:28:21.985Z,0
2023-03-25T22:33:39.418Z,0
2023-03-25T22:38:57.566Z,0
2023-03-25T22:44:15.029Z,0
2023-03-25T22:49:32.389Z,0
2023-03-25T22:54:50.362Z,0
2023-03-25T23:05:35.725Z,0
2023-03-25T23:10:54.007Z,0
2023-03-25T23:16:14.884Z,0
2023-03-25T23:21:32.627Z,0
2023-03-25T23:26:49.790Z,0
2023-03-25T23:32:09.515Z,0
2023-03-25T23:37:28.799Z,0
2023-03-25T23:42:46.560Z,0
2023-03-25T23:48:04.105Z,0
2023-03-25T23:53:21.623Z,0
2023-03-25T23:58:38.995Z,0
